Terminal Aerodrome Forecast
Issued by NWS Charleston, WV

Current Version | Previous Version | Text Only | Print | Product List | Glossary Off
Versions: 1 2 3 4 5 6 7 8 9 10 11 12 13 14 15 16 17 18 19 20 21 22 23 24 25 26 27

773
FTUS41 KRLX 172350
TAFHTS
TAF
KHTS 172350Z 1800/1824 25010G18KT P6SM SCT040
     FM180200 26008KT P6SM BKN025
      TEMPO 1802/1804 BKN035
     FM180500 26006KT P6SM BKN015
      TEMPO 1805/1809 BKN025
     FM181500 27006KT P6SM BKN025=

USA.gov is the U.S. government's official web portal to all federal, state and local government web resources and services.